首页
METAR-TAF:

METAR-TAF

机场 :

Accomack County Airport

Melfa, 弗吉尼亚州, 美国

纬度: 37-39N, 经度: 075-46W, 海拔: 15米

当前天气观测

该预报发布于12分钟前的07:15 UTC
风速4节,风向北转东北
温度 23°C
湿度 94%
气压 1016 hPa
能見度: 16.1公里
散云层高于7000英尺
阴天层高于10000英尺
附近有雷暴

METAR: KMFV 200715Z AUTO 03004KT 10SM VCTS SCT070 OVC100 23/22 A3000 RMK AO2 LTG DSNT SW AND NW T02300223

时间: 03:27 (07:27 UTC)


TAF: 丢失

超过4000个机场的气象观测和天气预报(METAR&TAF报告)。

可查询的气象台以黄色和红色小点在地图上表示。

将鼠标移到小点上方,可查看气象台名称。

然后点击查看天气观测和预报。

如需切换地图:点击带黑十字的绿色按钮放大地图;点击带横线的绿色按钮缩小地图;或者点击绿色箭头查看邻近地区的地图。


METAR-TAF: